Terminal Aerodrome Forecast
Issued by NWS Huntsville, AL

Home | Current Version | Previous Version | Text Only | Print | Product List | Glossary On
Versions: 1 2 3 4 5 6 7 8 9 10 11 12 13 14
000
FTUS44 KHUN 221720
TAFHSV
TAF
KHSV 221720Z 2218/2318 22006KT P6SM VCTS SCT040CB
     FM230100 VRB03KT P6SM SCT250
      TEMPO 2310/2312 VRB02KT 5SM BR FEW250
     FM231500 22006KT P6SM SCT040=

USA.gov is the U.S. government's official web portal to all federal, state and local government web resources and services.